sensor_id;sensor_type;location;lat;lon;timestamp;P1;durP1;ratioP1;P2;durP2;ratioP2
35330;SDS011;21441;52.190;20.910;2022-12-07T00:01:31;85.40;;;41.15;;
35330;SDS011;21441;52.190;20.910;2022-12-07T00:04:01;82.20;;;41.67;;
35330;SDS011;21441;52.190;20.910;2022-12-07T00:06:30;89.72;;;41.30;;
35330;SDS011;21441;52.190;20.910;2022-12-07T00:08:59;94.90;;;43.15;;
35330;SDS011;21441;52.190;20.910;2022-12-07T00:11:26;104.03;;;45.45;;
35330;SDS011;21441;52.190;20.910;2022-12-07T00:13:55;103.15;;;45.28;;
35330;SDS011;21441;52.190;20.910;2022-12-07T00:16:24;92.40;;;44.70;;
35330;SDS011;21441;52.190;20.910;2022-12-07T00:18:53;104.88;;;45.92;;
35330;SDS011;21441;52.190;20.910;2022-12-07T00:21:21;107.22;;;46.53;;
35330;SDS011;21441;52.190;20.910;2022-12-07T00:23:50;131.55;;;55.70;;
35330;SDS011;21441;52.190;20.910;2022-12-07T00:26:20;119.03;;;51.53;;
35330;SDS011;21441;52.190;20.910;2022-12-07T00:28:50;118.32;;;52.47;;
35330;SDS011;21441;52.190;20.910;2022-12-07T00:31:19;107.32;;;48.67;;
35330;SDS011;21441;52.190;20.910;2022-12-07T00:33:48;97.05;;;40.33;;
35330;SDS011;21441;52.190;20.910;2022-12-07T00:36:16;80.20;;;38.03;;
35330;SDS011;21441;52.190;20.910;2022-12-07T00:38:44;80.07;;;37.38;;
35330;SDS011;21441;52.190;20.910;2022-12-07T00:41:12;80.32;;;39.03;;
35330;SDS011;21441;52.190;20.910;2022-12-07T00:43:42;72.88;;;35.05;;
35330;SDS011;21441;52.190;20.910;2022-12-07T00:46:10;61.88;;;31.02;;
35330;SDS011;21441;52.190;20.910;2022-12-07T00:48:40;72.47;;;34.10;;
35330;SDS011;21441;52.190;20.910;2022-12-07T00:51:07;82.05;;;38.33;;
35330;SDS011;21441;52.190;20.910;2022-12-07T00:53:35;78.28;;;39.05;;
35330;SDS011;21441;52.190;20.910;2022-12-07T00:56:04;79.05;;;40.75;;
35330;SDS011;21441;52.190;20.910;2022-12-07T00:58:32;74.95;;;36.38;;
35330;SDS011;21441;52.190;20.910;2022-12-07T01:01:02;73.78;;;34.70;;
35330;SDS011;21441;52.190;20.910;2022-12-07T01:03:30;61.42;;;30.88;;
35330;SDS011;21441;52.190;20.910;2022-12-07T01:05:57;55.70;;;28.30;;
35330;SDS011;21441;52.190;20.910;2022-12-07T01:08:25;62.78;;;31.38;;
35330;SDS011;21441;52.190;20.910;2022-12-07T01:11:00;53.15;;;28.27;;
35330;SDS011;21441;52.190;20.910;2022-12-07T01:13:29;41.47;;;24.98;;
35330;SDS011;21441;52.190;20.910;2022-12-07T01:15:56;34.08;;;16.30;;
35330;SDS011;21441;52.190;20.910;2022-12-07T01:18:27;38.42;;;21.60;;
35330;SDS011;21441;52.190;20.910;2022-12-07T01:20:59;43.95;;;22.73;;
35330;SDS011;21441;52.190;20.910;2022-12-07T01:23:27;42.80;;;24.00;;
35330;SDS011;21441;52.190;20.910;2022-12-07T01:25:55;35.33;;;20.20;;
35330;SDS011;21441;52.190;20.910;2022-12-07T01:28:22;31.77;;;19.05;;
35330;SDS011;21441;52.190;20.910;2022-12-07T01:30:54;29.30;;;15.18;;
35330;SDS011;21441;52.190;20.910;2022-12-07T01:33:23;20.95;;;12.52;;
35330;SDS011;21441;52.190;20.910;2022-12-07T01:35:51;21.20;;;11.10;;
35330;SDS011;21441;52.190;20.910;2022-12-07T01:38:18;20.60;;;13.25;;
35330;SDS011;21441;52.190;20.910;2022-12-07T01:40:45;21.55;;;11.52;;
35330;SDS011;21441;52.190;20.910;2022-12-07T01:43:20;21.15;;;13.90;;
35330;SDS011;21441;52.190;20.910;2022-12-07T01:45:50;18.00;;;11.05;;
35330;SDS011;21441;52.190;20.910;2022-12-07T01:48:17;17.13;;;10.98;;
35330;SDS011;21441;52.190;20.910;2022-12-07T01:50:48;21.75;;;13.43;;
35330;SDS011;21441;52.190;20.910;2022-12-07T01:53:19;27.13;;;13.30;;
35330;SDS011;21441;52.190;20.910;2022-12-07T01:55:49;26.00;;;15.27;;
35330;SDS011;21441;52.190;20.910;2022-12-07T01:58:19;26.05;;;14.80;;
35330;SDS011;21441;52.190;20.910;2022-12-07T02:00:47;24.83;;;13.23;;
35330;SDS011;21441;52.190;20.910;2022-12-07T02:03:15;26.65;;;14.40;;
35330;SDS011;21441;52.190;20.910;2022-12-07T02:05:47;27.73;;;16.00;;
35330;SDS011;21441;52.190;20.910;2022-12-07T02:08:17;29.98;;;15.98;;
35330;SDS011;21441;52.190;20.910;2022-12-07T02:10:44;21.65;;;11.95;;
35330;SDS011;21441;52.190;20.910;2022-12-07T02:13:12;21.23;;;14.13;;
35330;SDS011;21441;52.190;20.910;2022-12-07T02:18:20;22.98;;;13.73;;
35330;SDS011;21441;52.190;20.910;2022-12-07T02:20:55;25.92;;;14.70;;
35330;SDS011;21441;52.190;20.910;2022-12-07T02:23:41;21.98;;;12.18;;
35330;SDS011;21441;52.190;20.910;2022-12-07T02:29:29;21.15;;;14.05;;
35330;SDS011;21441;52.190;20.910;2022-12-07T02:32:02;23.20;;;13.45;;
35330;SDS011;21441;52.190;20.910;2022-12-07T02:34:37;17.42;;;11.43;;
35330;SDS011;21441;52.190;20.910;2022-12-07T02:37:16;23.13;;;13.18;;
35330;SDS011;21441;52.190;20.910;2022-12-07T02:39:49;19.90;;;11.40;;
35330;SDS011;21441;52.190;20.910;2022-12-07T02:42:22;20.10;;;12.98;;
35330;SDS011;21441;52.190;20.910;2022-12-07T02:44:55;19.85;;;12.52;;
35330;SDS011;21441;52.190;20.910;2022-12-07T02:47:23;13.35;;;7.90;;
35330;SDS011;21441;52.190;20.910;2022-12-07T02:49:51;18.73;;;11.73;;
35330;SDS011;21441;52.190;20.910;2022-12-07T02:52:19;18.08;;;11.15;;
35330;SDS011;21441;52.190;20.910;2022-12-07T02:54:46;19.45;;;11.02;;
35330;SDS011;21441;52.190;20.910;2022-12-07T03:00:10;17.20;;;10.70;;
35330;SDS011;21441;52.190;20.910;2022-12-07T03:02:43;20.10;;;12.02;;
35330;SDS011;21441;52.190;20.910;2022-12-07T03:05:30;21.02;;;12.45;;
35330;SDS011;21441;52.190;20.910;2022-12-07T03:08:13;18.55;;;10.95;;
35330;SDS011;21441;52.190;20.910;2022-12-07T03:10:48;12.27;;;7.90;;
35330;SDS011;21441;52.190;20.910;2022-12-07T03:13:22;15.63;;;10.60;;
35330;SDS011;21441;52.190;20.910;2022-12-07T03:15:55;16.65;;;10.15;;
35330;SDS011;21441;52.190;20.910;2022-12-07T03:18:25;18.85;;;11.80;;
35330;SDS011;21441;52.190;20.910;2022-12-07T03:21:00;16.88;;;11.00;;
35330;SDS011;21441;52.190;20.910;2022-12-07T03:23:30;14.25;;;9.40;;
35330;SDS011;21441;52.190;20.910;2022-12-07T03:26:01;19.08;;;11.32;;
35330;SDS011;21441;52.190;20.910;2022-12-07T03:31:02;15.15;;;9.48;;
35330;SDS011;21441;52.190;20.910;2022-12-07T03:33:40;9.63;;;7.13;;
35330;SDS011;21441;52.190;20.910;2022-12-07T03:36:14;10.98;;;8.20;;
35330;SDS011;21441;52.190;20.910;2022-12-07T03:38:48;12.32;;;8.52;;
35330;SDS011;21441;52.190;20.910;2022-12-07T03:41:20;16.48;;;10.63;;
35330;SDS011;21441;52.190;20.910;2022-12-07T03:43:50;8.43;;;6.55;;
35330;SDS011;21441;52.190;20.910;2022-12-07T03:46:20;7.15;;;4.90;;
35330;SDS011;21441;52.190;20.910;2022-12-07T03:48:55;11.15;;;8.15;;
35330;SDS011;21441;52.190;20.910;2022-12-07T03:51:28;10.02;;;6.85;;
35330;SDS011;21441;52.190;20.910;2022-12-07T03:54:05;11.52;;;8.77;;
35330;SDS011;21441;52.190;20.910;2022-12-07T03:56:37;14.63;;;9.60;;
35330;SDS011;21441;52.190;20.910;2022-12-07T03:59:06;14.60;;;9.60;;
35330;SDS011;21441;52.190;20.910;2022-12-07T04:01:35;14.85;;;10.43;;
35330;SDS011;21441;52.190;20.910;2022-12-07T04:04:02;18.35;;;13.13;;
35330;SDS011;21441;52.190;20.910;2022-12-07T04:06:30;14.30;;;11.07;;
35330;SDS011;21441;52.190;20.910;2022-12-07T04:08:57;18.25;;;11.50;;
35330;SDS011;21441;52.190;20.910;2022-12-07T04:11:24;11.75;;;8.07;;
35330;SDS011;21441;52.190;20.910;2022-12-07T04:13:51;16.15;;;9.18;;
35330;SDS011;21441;52.190;20.910;2022-12-07T04:16:37;12.65;;;6.88;;
35330;SDS011;21441;52.190;20.910;2022-12-07T04:19:04;12.60;;;8.13;;
35330;SDS011;21441;52.190;20.910;2022-12-07T04:21:31;12.10;;;7.00;;
35330;SDS011;21441;52.190;20.910;2022-12-07T04:23:58;12.32;;;7.25;;
35330;SDS011;21441;52.190;20.910;2022-12-07T04:26:25;8.93;;;6.30;;
35330;SDS011;21441;52.190;20.910;2022-12-07T04:28:52;12.85;;;6.68;;
35330;SDS011;21441;52.190;20.910;2022-12-07T04:31:20;10.20;;;6.65;;
35330;SDS011;21441;52.190;20.910;2022-12-07T04:33:48;11.13;;;6.35;;
35330;SDS011;21441;52.190;20.910;2022-12-07T04:36:15;12.32;;;8.02;;
35330;SDS011;21441;52.190;20.910;2022-12-07T04:38:45;13.83;;;8.10;;
35330;SDS011;21441;52.190;20.910;2022-12-07T04:41:12;11.60;;;7.95;;
35330;SDS011;21441;52.190;20.910;2022-12-07T04:43:39;11.15;;;7.65;;
35330;SDS011;21441;52.190;20.910;2022-12-07T04:46:06;12.85;;;8.30;;
35330;SDS011;21441;52.190;20.910;2022-12-07T04:48:33;16.52;;;8.27;;
35330;SDS011;21441;52.190;20.910;2022-12-07T04:51:03;11.70;;;7.38;;
35330;SDS011;21441;52.190;20.910;2022-12-07T04:53:30;12.80;;;8.15;;
35330;SDS011;21441;52.190;20.910;2022-12-07T04:55:57;11.38;;;7.28;;
35330;SDS011;21441;52.190;20.910;2022-12-07T04:58:26;14.07;;;8.80;;
35330;SDS011;21441;52.190;20.910;2022-12-07T05:00:53;14.68;;;9.32;;
35330;SDS011;21441;52.190;20.910;2022-12-07T05:03:21;18.00;;;9.65;;
35330;SDS011;21441;52.190;20.910;2022-12-07T05:05:48;17.13;;;9.65;;
35330;SDS011;21441;52.190;20.910;2022-12-07T05:08:16;19.83;;;10.57;;
35330;SDS011;21441;52.190;20.910;2022-12-07T05:10:44;18.58;;;10.23;;
35330;SDS011;21441;52.190;20.910;2022-12-07T05:13:11;18.67;;;11.07;;
35330;SDS011;21441;52.190;20.910;2022-12-07T05:15:38;19.77;;;10.98;;
35330;SDS011;21441;52.190;20.910;2022-12-07T05:18:05;21.55;;;11.38;;
35330;SDS011;21441;52.190;20.910;2022-12-07T05:20:32;22.88;;;11.35;;
35330;SDS011;21441;52.190;20.910;2022-12-07T05:22:59;21.23;;;11.85;;
35330;SDS011;21441;52.190;20.910;2022-12-07T05:25:28;22.80;;;11.32;;
35330;SDS011;21441;52.190;20.910;2022-12-07T05:27:55;15.63;;;9.93;;
35330;SDS011;21441;52.190;20.910;2022-12-07T05:30:22;17.98;;;11.25;;
35330;SDS011;21441;52.190;20.910;2022-12-07T05:32:49;18.98;;;9.93;;
35330;SDS011;21441;52.190;20.910;2022-12-07T05:35:17;15.43;;;10.00;;
35330;SDS011;21441;52.190;20.910;2022-12-07T05:37:44;14.40;;;8.70;;
35330;SDS011;21441;52.190;20.910;2022-12-07T05:40:13;15.00;;;9.90;;
35330;SDS011;21441;52.190;20.910;2022-12-07T05:42:42;15.68;;;10.00;;
35330;SDS011;21441;52.190;20.910;2022-12-07T05:45:09;16.75;;;9.57;;
35330;SDS011;21441;52.190;20.910;2022-12-07T05:47:37;16.38;;;9.52;;
35330;SDS011;21441;52.190;20.910;2022-12-07T05:50:05;16.92;;;10.57;;
35330;SDS011;21441;52.190;20.910;2022-12-07T05:52:33;19.98;;;11.68;;
35330;SDS011;21441;52.190;20.910;2022-12-07T05:55:00;16.27;;;9.38;;
35330;SDS011;21441;52.190;20.910;2022-12-07T05:57:27;15.75;;;9.73;;
35330;SDS011;21441;52.190;20.910;2022-12-07T05:59:56;11.20;;;8.40;;
35330;SDS011;21441;52.190;20.910;2022-12-07T06:02:22;14.15;;;8.45;;
35330;SDS011;21441;52.190;20.910;2022-12-07T06:04:49;18.15;;;9.80;;
35330;SDS011;21441;52.190;20.910;2022-12-07T06:07:16;14.57;;;9.38;;
35330;SDS011;21441;52.190;20.910;2022-12-07T06:09:44;14.65;;;8.35;;
35330;SDS011;21441;52.190;20.910;2022-12-07T06:12:11;21.23;;;10.32;;
35330;SDS011;21441;52.190;20.910;2022-12-07T06:14:58;18.25;;;11.35;;
35330;SDS011;21441;52.190;20.910;2022-12-07T06:17:25;16.15;;;10.75;;
35330;SDS011;21441;52.190;20.910;2022-12-07T06:19:52;18.40;;;10.30;;
35330;SDS011;21441;52.190;20.910;2022-12-07T06:22:19;18.30;;;10.45;;
35330;SDS011;21441;52.190;20.910;2022-12-07T06:24:46;19.10;;;10.82;;
35330;SDS011;21441;52.190;20.910;2022-12-07T06:27:13;16.38;;;9.50;;
35330;SDS011;21441;52.190;20.910;2022-12-07T06:29:40;18.20;;;10.85;;
35330;SDS011;21441;52.190;20.910;2022-12-07T06:32:09;17.48;;;10.13;;
35330;SDS011;21441;52.190;20.910;2022-12-07T06:34:37;15.57;;;10.00;;
35330;SDS011;21441;52.190;20.910;2022-12-07T06:37:04;16.83;;;10.15;;
35330;SDS011;21441;52.190;20.910;2022-12-07T06:39:31;13.63;;;8.68;;
35330;SDS011;21441;52.190;20.910;2022-12-07T06:41:58;14.23;;;7.68;;
35330;SDS011;21441;52.190;20.910;2022-12-07T06:44:26;14.77;;;8.73;;
35330;SDS011;21441;52.190;20.910;2022-12-07T06:46:53;15.88;;;9.60;;
35330;SDS011;21441;52.190;20.910;2022-12-07T06:49:22;15.10;;;9.02;;
35330;SDS011;21441;52.190;20.910;2022-12-07T06:51:48;14.23;;;9.40;;
35330;SDS011;21441;52.190;20.910;2022-12-07T06:54:16;18.20;;;10.38;;
35330;SDS011;21441;52.190;20.910;2022-12-07T06:56:43;17.58;;;9.77;;
35330;SDS011;21441;52.190;20.910;2022-12-07T06:59:10;19.42;;;9.65;;
35330;SDS011;21441;52.190;20.910;2022-12-07T07:01:37;17.83;;;10.63;;
35330;SDS011;21441;52.190;20.910;2022-12-07T07:04:04;18.15;;;10.75;;
35330;SDS011;21441;52.190;20.910;2022-12-07T07:06:33;15.60;;;10.05;;
35330;SDS011;21441;52.190;20.910;2022-12-07T07:09:02;13.60;;;9.55;;
35330;SDS011;21441;52.190;20.910;2022-12-07T07:11:29;16.58;;;9.88;;
35330;SDS011;21441;52.190;20.910;2022-12-07T07:13:57;14.30;;;8.75;;
35330;SDS011;21441;52.190;20.910;2022-12-07T07:16:27;14.93;;;8.32;;
35330;SDS011;21441;52.190;20.910;2022-12-07T07:18:56;14.75;;;9.32;;
35330;SDS011;21441;52.190;20.910;2022-12-07T07:21:23;18.38;;;9.80;;
35330;SDS011;21441;52.190;20.910;2022-12-07T07:23:52;14.82;;;9.23;;
35330;SDS011;21441;52.190;20.910;2022-12-07T07:26:18;20.67;;;11.45;;
35330;SDS011;21441;52.190;20.910;2022-12-07T07:28:46;11.63;;;7.28;;
35330;SDS011;21441;52.190;20.910;2022-12-07T07:31:13;15.10;;;8.95;;
35330;SDS011;21441;52.190;20.910;2022-12-07T07:33:40;19.73;;;11.43;;
35330;SDS011;21441;52.190;20.910;2022-12-07T07:36:07;19.35;;;10.63;;
35330;SDS011;21441;52.190;20.910;2022-12-07T07:38:35;14.15;;;7.75;;
35330;SDS011;21441;52.190;20.910;2022-12-07T07:41:04;11.57;;;6.93;;
35330;SDS011;21441;52.190;20.910;2022-12-07T07:43:32;13.88;;;8.90;;
35330;SDS011;21441;52.190;20.910;2022-12-07T07:45:58;15.48;;;8.52;;
35330;SDS011;21441;52.190;20.910;2022-12-07T07:48:26;19.80;;;9.48;;
35330;SDS011;21441;52.190;20.910;2022-12-07T07:50:53;15.52;;;8.57;;
35330;SDS011;21441;52.190;20.910;2022-12-07T07:53:20;17.80;;;10.45;;
35330;SDS011;21441;52.190;20.910;2022-12-07T07:55:50;18.25;;;9.80;;
35330;SDS011;21441;52.190;20.910;2022-12-07T07:58:20;19.55;;;11.13;;
35330;SDS011;21441;52.190;20.910;2022-12-07T08:00:47;20.75;;;12.35;;
35330;SDS011;21441;52.190;20.910;2022-12-07T08:03:15;21.85;;;12.35;;
35330;SDS011;21441;52.190;20.910;2022-12-07T08:05:42;21.27;;;11.95;;
35330;SDS011;21441;52.190;20.910;2022-12-07T08:08:09;14.95;;;9.60;;
35330;SDS011;21441;52.190;20.910;2022-12-07T08:10:36;12.63;;;9.52;;
35330;SDS011;21441;52.190;20.910;2022-12-07T08:13:04;18.60;;;10.88;;
35330;SDS011;21441;52.190;20.910;2022-12-07T08:15:39;18.73;;;10.93;;
35330;SDS011;21441;52.190;20.910;2022-12-07T08:18:07;28.60;;;14.38;;
35330;SDS011;21441;52.190;20.910;2022-12-07T08:20:35;21.90;;;12.88;;
35330;SDS011;21441;52.190;20.910;2022-12-07T08:23:03;24.27;;;14.80;;
35330;SDS011;21441;52.190;20.910;2022-12-07T08:25:31;17.67;;;10.98;;
35330;SDS011;21441;52.190;20.910;2022-12-07T08:27:58;25.95;;;15.40;;
35330;SDS011;21441;52.190;20.910;2022-12-07T08:30:27;21.70;;;12.98;;
35330;SDS011;21441;52.190;20.910;2022-12-07T08:32:57;26.08;;;14.38;;
35330;SDS011;21441;52.190;20.910;2022-12-07T08:35:24;32.88;;;16.52;;
35330;SDS011;21441;52.190;20.910;2022-12-07T08:37:51;25.67;;;13.82;;
35330;SDS011;21441;52.190;20.910;2022-12-07T08:40:18;26.33;;;14.75;;
35330;SDS011;21441;52.190;20.910;2022-12-07T08:42:48;24.42;;;13.70;;
35330;SDS011;21441;52.190;20.910;2022-12-07T08:45:15;28.98;;;14.45;;
35330;SDS011;21441;52.190;20.910;2022-12-07T08:47:46;27.88;;;13.30;;
35330;SDS011;21441;52.190;20.910;2022-12-07T08:50:23;21.60;;;12.88;;
35330;SDS011;21441;52.190;20.910;2022-12-07T08:52:52;22.80;;;12.52;;
35330;SDS011;21441;52.190;20.910;2022-12-07T08:57:49;21.75;;;11.98;;
35330;SDS011;21441;52.190;20.910;2022-12-07T09:00:16;26.08;;;13.02;;
35330;SDS011;21441;52.190;20.910;2022-12-07T09:02:44;21.25;;;10.88;;
35330;SDS011;21441;52.190;20.910;2022-12-07T09:05:13;26.35;;;12.25;;
35330;SDS011;21441;52.190;20.910;2022-12-07T09:07:43;18.80;;;10.07;;
35330;SDS011;21441;52.190;20.910;2022-12-07T09:10:12;21.20;;;11.70;;
35330;SDS011;21441;52.190;20.910;2022-12-07T09:12:39;22.80;;;11.95;;
35330;SDS011;21441;52.190;20.910;2022-12-07T09:15:06;17.35;;;9.88;;
35330;SDS011;21441;52.190;20.910;2022-12-07T09:17:35;15.50;;;8.68;;
35330;SDS011;21441;52.190;20.910;2022-12-07T09:20:02;21.77;;;13.38;;
35330;SDS011;21441;52.190;20.910;2022-12-07T09:22:30;20.20;;;11.52;;
35330;SDS011;21441;52.190;20.910;2022-12-07T09:24:58;23.27;;;11.15;;
35330;SDS011;21441;52.190;20.910;2022-12-07T09:27:27;29.00;;;13.38;;
35330;SDS011;21441;52.190;20.910;2022-12-07T09:29:54;20.75;;;10.07;;
35330;SDS011;21441;52.190;20.910;2022-12-07T09:32:22;18.73;;;9.45;;
35330;SDS011;21441;52.190;20.910;2022-12-07T09:34:49;20.98;;;10.38;;
35330;SDS011;21441;52.190;20.910;2022-12-07T09:37:16;20.00;;;11.00;;
35330;SDS011;21441;52.190;20.910;2022-12-07T09:39:43;20.90;;;10.35;;
35330;SDS011;21441;52.190;20.910;2022-12-07T09:42:13;20.58;;;10.77;;
35330;SDS011;21441;52.190;20.910;2022-12-07T09:44:54;17.75;;;8.52;;
35330;SDS011;21441;52.190;20.910;2022-12-07T09:47:22;25.38;;;10.80;;
35330;SDS011;21441;52.190;20.910;2022-12-07T09:49:49;27.08;;;12.40;;
35330;SDS011;21441;52.190;20.910;2022-12-07T09:52:17;18.15;;;9.70;;
35330;SDS011;21441;52.190;20.910;2022-12-07T09:54:48;20.33;;;10.38;;
35330;SDS011;21441;52.190;20.910;2022-12-07T09:57:18;16.00;;;7.53;;
35330;SDS011;21441;52.190;20.910;2022-12-07T09:59:52;21.15;;;11.07;;
35330;SDS011;21441;52.190;20.910;2022-12-07T10:02:33;16.38;;;8.90;;
35330;SDS011;21441;52.190;20.910;2022-12-07T10:05:03;17.85;;;8.82;;
35330;SDS011;21441;52.190;20.910;2022-12-07T10:07:32;14.63;;;9.25;;
35330;SDS011;21441;52.190;20.910;2022-12-07T10:09:59;19.38;;;9.18;;
35330;SDS011;21441;52.190;20.910;2022-12-07T10:12:30;19.20;;;10.03;;
35330;SDS011;21441;52.190;20.910;2022-12-07T10:14:59;17.70;;;10.05;;
35330;SDS011;21441;52.190;20.910;2022-12-07T10:17:29;19.83;;;8.55;;
35330;SDS011;21441;52.190;20.910;2022-12-07T10:20:10;22.58;;;10.90;;
35330;SDS011;21441;52.190;20.910;2022-12-07T10:22:53;17.75;;;9.80;;
35330;SDS011;21441;52.190;20.910;2022-12-07T10:25:25;13.52;;;7.03;;
35330;SDS011;21441;52.190;20.910;2022-12-07T10:28:00;19.70;;;10.93;;
35330;SDS011;21441;52.190;20.910;2022-12-07T10:30:45;15.77;;;9.55;;
35330;SDS011;21441;52.190;20.910;2022-12-07T10:33:26;14.55;;;9.60;;
35330;SDS011;21441;52.190;20.910;2022-12-07T10:35:54;14.80;;;8.35;;
35330;SDS011;21441;52.190;20.910;2022-12-07T10:38:22;10.63;;;6.47;;
35330;SDS011;21441;52.190;20.910;2022-12-07T10:41:02;13.85;;;8.20;;
35330;SDS011;21441;52.190;20.910;2022-12-07T10:43:31;13.20;;;7.88;;
35330;SDS011;21441;52.190;20.910;2022-12-07T10:46:08;13.65;;;8.85;;
35330;SDS011;21441;52.190;20.910;2022-12-07T10:48:55;16.98;;;8.35;;
35330;SDS011;21441;52.190;20.910;2022-12-07T10:51:33;12.25;;;7.60;;
35330;SDS011;21441;52.190;20.910;2022-12-07T10:54:12;19.92;;;9.07;;
35330;SDS011;21441;52.190;20.910;2022-12-07T10:56:47;16.13;;;8.35;;
35330;SDS011;21441;52.190;20.910;2022-12-07T10:59:42;19.38;;;9.77;;
35330;SDS011;21441;52.190;20.910;2022-12-07T11:02:23;15.95;;;9.60;;
35330;SDS011;21441;52.190;20.910;2022-12-07T11:04:56;19.50;;;9.68;;
35330;SDS011;21441;52.190;20.910;2022-12-07T11:07:35;17.00;;;9.88;;
35330;SDS011;21441;52.190;20.910;2022-12-07T11:10:12;21.42;;;12.27;;
35330;SDS011;21441;52.190;20.910;2022-12-07T11:12:47;17.92;;;9.95;;
35330;SDS011;21441;52.190;20.910;2022-12-07T11:15:28;15.98;;;10.35;;
35330;SDS011;21441;52.190;20.910;2022-12-07T11:18:03;20.38;;;10.90;;
35330;SDS011;21441;52.190;20.910;2022-12-07T11:20:40;20.70;;;12.40;;
35330;SDS011;21441;52.190;20.910;2022-12-07T11:23:15;17.48;;;9.88;;
35330;SDS011;21441;52.190;20.910;2022-12-07T11:25:49;15.10;;;8.93;;
35330;SDS011;21441;52.190;20.910;2022-12-07T11:28:28;19.88;;;11.75;;
35330;SDS011;21441;52.190;20.910;2022-12-07T11:31:10;17.27;;;10.57;;
35330;SDS011;21441;52.190;20.910;2022-12-07T11:33:45;15.93;;;8.17;;
35330;SDS011;21441;52.190;20.910;2022-12-07T11:36:23;13.60;;;9.10;;
35330;SDS011;21441;52.190;20.910;2022-12-07T11:39:00;18.02;;;9.90;;
35330;SDS011;21441;52.190;20.910;2022-12-07T11:41:31;21.67;;;11.77;;
35330;SDS011;21441;52.190;20.910;2022-12-07T11:44:05;15.63;;;9.38;;
35330;SDS011;21441;52.190;20.910;2022-12-07T11:46:40;17.13;;;10.85;;
35330;SDS011;21441;52.190;20.910;2022-12-07T11:49:13;13.88;;;7.72;;
35330;SDS011;21441;52.190;20.910;2022-12-07T11:51:46;23.08;;;11.90;;
35330;SDS011;21441;52.190;20.910;2022-12-07T11:54:18;21.05;;;10.25;;
35330;SDS011;21441;52.190;20.910;2022-12-07T11:56:49;15.65;;;9.20;;
35330;SDS011;21441;52.190;20.910;2022-12-07T11:59:19;15.48;;;9.13;;
35330;SDS011;21441;52.190;20.910;2022-12-07T12:01:55;18.80;;;10.25;;
35330;SDS011;21441;52.190;20.910;2022-12-07T12:04:27;17.05;;;9.80;;
35330;SDS011;21441;52.190;20.910;2022-12-07T12:06:59;12.98;;;7.68;;
35330;SDS011;21441;52.190;20.910;2022-12-07T12:09:27;17.40;;;10.30;;
35330;SDS011;21441;52.190;20.910;2022-12-07T12:12:22;19.58;;;11.18;;
35330;SDS011;21441;52.190;20.910;2022-12-07T12:15:02;18.77;;;11.68;;
35330;SDS011;21441;52.190;20.910;2022-12-07T12:18:01;19.52;;;10.60;;
35330;SDS011;21441;52.190;20.910;2022-12-07T12:20:40;17.27;;;10.35;;
35330;SDS011;21441;52.190;20.910;2022-12-07T12:23:11;21.35;;;11.27;;
35330;SDS011;21441;52.190;20.910;2022-12-07T12:25:42;18.50;;;12.15;;
35330;SDS011;21441;52.190;20.910;2022-12-07T12:28:18;22.70;;;13.82;;
35330;SDS011;21441;52.190;20.910;2022-12-07T12:33:36;23.48;;;13.13;;
35330;SDS011;21441;52.190;20.910;2022-12-07T12:36:18;24.15;;;13.68;;
35330;SDS011;21441;52.190;20.910;2022-12-07T12:38:51;21.50;;;12.55;;
35330;SDS011;21441;52.190;20.910;2022-12-07T12:50:26;21.02;;;10.60;;
35330;SDS011;21441;52.190;20.910;2022-12-07T13:01:54;17.10;;;8.82;;
35330;SDS011;21441;52.190;20.910;2022-12-07T13:10:35;9.20;;;6.50;;
35330;SDS011;21441;52.190;20.910;2022-12-07T13:22:43;11.48;;;6.50;;
35330;SDS011;21441;52.190;20.910;2022-12-07T13:25:18;15.38;;;8.30;;
35330;SDS011;21441;52.190;20.910;2022-12-07T13:27:54;14.82;;;9.18;;
35330;SDS011;21441;52.190;20.910;2022-12-07T13:30:24;14.55;;;8.45;;
35330;SDS011;21441;52.190;20.910;2022-12-07T13:32:53;12.95;;;7.32;;
35330;SDS011;21441;52.190;20.910;2022-12-07T13:35:32;13.27;;;9.93;;
35330;SDS011;21441;52.190;20.910;2022-12-07T13:38:04;15.30;;;9.63;;
35330;SDS011;21441;52.190;20.910;2022-12-07T13:40:33;15.23;;;10.07;;
35330;SDS011;21441;52.190;20.910;2022-12-07T13:43:02;14.93;;;10.50;;
35330;SDS011;21441;52.190;20.910;2022-12-07T13:45:39;18.17;;;11.45;;
35330;SDS011;21441;52.190;20.910;2022-12-07T13:48:20;19.60;;;11.13;;
35330;SDS011;21441;52.190;20.910;2022-12-07T13:50:52;17.50;;;10.48;;
35330;SDS011;21441;52.190;20.910;2022-12-07T13:53:21;18.02;;;10.27;;
35330;SDS011;21441;52.190;20.910;2022-12-07T13:55:48;16.88;;;10.40;;
35330;SDS011;21441;52.190;20.910;2022-12-07T13:58:17;18.75;;;11.80;;
35330;SDS011;21441;52.190;20.910;2022-12-07T14:00:44;18.33;;;10.70;;
35330;SDS011;21441;52.190;20.910;2022-12-07T14:06:14;12.95;;;7.70;;
35330;SDS011;21441;52.190;20.910;2022-12-07T14:08:51;18.57;;;11.00;;
35330;SDS011;21441;52.190;20.910;2022-12-07T14:11:33;16.17;;;9.43;;
35330;SDS011;21441;52.190;20.910;2022-12-07T14:14:02;17.88;;;10.77;;
35330;SDS011;21441;52.190;20.910;2022-12-07T14:16:30;29.63;;;13.10;;
35330;SDS011;21441;52.190;20.910;2022-12-07T14:19:00;24.55;;;13.85;;
35330;SDS011;21441;52.190;20.910;2022-12-07T14:21:31;25.88;;;14.43;;
35330;SDS011;21441;52.190;20.910;2022-12-07T14:24:07;36.67;;;17.83;;
35330;SDS011;21441;52.190;20.910;2022-12-07T14:26:38;21.80;;;13.02;;
35330;SDS011;21441;52.190;20.910;2022-12-07T14:29:20;23.05;;;13.40;;
35330;SDS011;21441;52.190;20.910;2022-12-07T14:32:04;19.35;;;11.85;;
35330;SDS011;21441;52.190;20.910;2022-12-07T14:34:57;23.10;;;13.90;;
35330;SDS011;21441;52.190;20.910;2022-12-07T14:37:30;23.98;;;14.70;;
35330;SDS011;21441;52.190;20.910;2022-12-07T14:39:57;21.10;;;13.82;;
35330;SDS011;21441;52.190;20.910;2022-12-07T14:42:26;21.30;;;13.35;;
35330;SDS011;21441;52.190;20.910;2022-12-07T14:44:57;26.08;;;13.90;;
35330;SDS011;21441;52.190;20.910;2022-12-07T14:47:25;21.93;;;12.77;;
35330;SDS011;21441;52.190;20.910;2022-12-07T14:49:53;28.73;;;16.13;;
35330;SDS011;21441;52.190;20.910;2022-12-07T14:52:21;25.15;;;15.07;;
35330;SDS011;21441;52.190;20.910;2022-12-07T14:54:49;22.73;;;12.70;;
35330;SDS011;21441;52.190;20.910;2022-12-07T14:57:16;24.27;;;14.40;;
35330;SDS011;21441;52.190;20.910;2022-12-07T14:59:43;24.88;;;13.15;;
35330;SDS011;21441;52.190;20.910;2022-12-07T15:02:13;28.13;;;15.52;;
35330;SDS011;21441;52.190;20.910;2022-12-07T15:04:42;23.58;;;13.90;;
35330;SDS011;21441;52.190;20.910;2022-12-07T15:07:12;35.20;;;17.15;;
35330;SDS011;21441;52.190;20.910;2022-12-07T15:09:43;36.08;;;17.05;;
35330;SDS011;21441;52.190;20.910;2022-12-07T15:12:10;20.92;;;10.65;;
35330;SDS011;21441;52.190;20.910;2022-12-07T15:14:37;42.38;;;19.55;;
35330;SDS011;21441;52.190;20.910;2022-12-07T15:17:04;28.98;;;14.65;;
35330;SDS011;21441;52.190;20.910;2022-12-07T15:19:33;41.10;;;17.33;;
35330;SDS011;21441;52.190;20.910;2022-12-07T15:22:00;28.77;;;14.50;;
35330;SDS011;21441;52.190;20.910;2022-12-07T15:24:27;26.17;;;13.50;;
35330;SDS011;21441;52.190;20.910;2022-12-07T15:26:56;25.13;;;13.35;;